This is the latest recevied weather packets stored in our database for station/object OE6PWE-13. If no packets are shown the sender has not sent any weather packets the latest 10 day(s).
| Time | Temp. | Humidity | Pressure | Rain* | Wind** | Luminosity | Snow |
|---|---|---|---|---|---|---|---|
| 1777520713 | -0.56° C | 76% | 1030 hPa | 0 mm | - | - | - |
| 1777519821 | 0° C | 72% | 1030 hPa | 0 mm | - | - | - |
| 1777518914 | 0.56° C | 70% | 1030 hPa | 0 mm | - | - | - |
| 1777517113 | 2.22° C | 61% | 1030 hPa | 0 mm | - | - | - |
| 1777515313 | 2.78° C | 57% | 1030 hPa | 0 mm | - | - | - |
| 1777514421 | 2.78° C | 56% | 1029 hPa | 0 mm | - | - | - |
| 1777513513 | 3.33° C | 57% | 1029 hPa | 0 mm | - | - | - |
| 1777512620 | 3.33° C | 57% | 1029 hPa | 0 mm | - | - | - |
| 1777511713 | 3.33° C | 56% | 1029 hPa | 0 mm | - | - | - |
| 1777510818 | 3.33° C | 57% | 1029 hPa | 0 mm | - | - | - |
| 1777509913 | 3.89° C | 55% | 1029 hPa | 0 mm | - | - | - |
| 1777509021 | 4.44° C | 53% | 1029 hPa | 0 mm | - | - | - |
| 1777508113 | 4.44° C | 50% | 1029 hPa | 0 mm | - | - | - |
| 1777507221 | 4.44° C | 48% | 1028 hPa | 0 mm | - | - | - |
| 1777506313 | 5° C | 47% | 1028 hPa | 0 mm | - | - | - |
| 1777505422 | 5.56° C | 46% | 1028 hPa | 0 mm | - | - | - |
| 1777504514 | 6.11° C | 45% | 1028 hPa | 0 mm | - | - | - |
| 1777503622 | 6.11° C | 44% | 1028 hPa | 0 mm | - | - | - |
| 1777502714 | 6.67° C | 43% | 1027 hPa | 0 mm | - | - | - |
| 1777501821 | 6.67° C | 42% | 1027 hPa | 0 mm | - | - | - |
| 1777500913 | 7.22° C | 44% | 1027 hPa | 0 mm | - | - | - |
| 1777500026 | 7.22° C | 43% | 1027 hPa | 0 mm | - | - | - |
| 1777499114 | 7.78° C | 43% | 1027 hPa | 0 mm | - | - | - |
| 1777498220 | 7.78° C | 46% | 1026 hPa | 0 mm | - | - | - |
| 1777497314 | 7.78° C | 48% | 1026 hPa | 0 mm | - | - | - |
* Rain latest hour (hover to see other rain measurements)
** Current wind speed in m/s (hover to see current wind gust speed)